createdAt,value
2017-05-16T00:02:14.284Z,1.50
2017-05-16T00:04:41.484Z,1.58
2017-05-16T00:07:09.331Z,2.28
2017-05-16T00:09:36.517Z,2.10
2017-05-16T00:12:03.702Z,2.26
2017-05-16T00:14:30.944Z,1.96
2017-05-16T00:16:58.269Z,1.74
2017-05-16T00:19:25.461Z,2.26
2017-05-16T00:21:52.704Z,2.32
2017-05-16T00:24:19.909Z,2.30
2017-05-16T00:26:52.535Z,1.84
2017-05-16T00:29:19.747Z,2.68
2017-05-16T00:31:46.946Z,2.48
2017-05-16T00:34:14.138Z,2.98
2017-05-16T00:36:41.343Z,2.40
2017-05-16T00:39:08.545Z,2.22
2017-05-16T00:41:35.821Z,2.50
2017-05-16T00:44:03.057Z,2.66
2017-05-16T00:49:08.491Z,2.72
2017-05-16T00:51:35.679Z,3.14
2017-05-16T00:54:09.562Z,2.82
2017-05-16T00:56:36.804Z,2.48
2017-05-16T00:59:04.015Z,2.86
2017-05-16T01:01:31.476Z,2.56
2017-05-16T01:03:58.704Z,2.66
2017-05-16T01:06:25.907Z,2.50
2017-05-16T01:08:53.125Z,2.64
2017-05-16T01:11:20.309Z,2.88
2017-05-16T01:13:47.485Z,2.48
2017-05-16T01:16:14.713Z,2.60
2017-05-16T01:18:41.913Z,2.66
2017-05-16T01:21:09.143Z,3.10
2017-05-16T01:23:36.363Z,3.36
2017-05-16T01:26:03.575Z,3.50
2017-05-16T01:28:30.800Z,2.82
2017-05-16T01:30:58.035Z,3.74
2017-05-16T01:33:25.307Z,3.86
2017-05-16T01:35:52.483Z,4.20
2017-05-16T01:38:19.694Z,4.44
2017-05-16T01:40:46.884Z,4.98
2017-05-16T01:43:14.090Z,5.34
2017-05-16T01:45:42.063Z,5.54
2017-05-16T01:48:09.316Z,6.46
2017-05-16T01:50:36.530Z,5.76
2017-05-16T01:53:03.779Z,7.12
2017-05-16T01:55:31.834Z,6.26
2017-05-16T01:57:59.035Z,4.84
2017-05-16T02:00:26.252Z,4.22
2017-05-16T02:02:54.721Z,3.84
2017-05-16T02:05:21.968Z,3.62
2017-05-16T02:07:49.189Z,3.44
2017-05-16T02:10:17.888Z,3.28
2017-05-16T02:12:45.323Z,3.66
2017-05-16T02:15:21.072Z,3.80
2017-05-16T02:17:48.294Z,3.70
2017-05-16T02:20:15.481Z,3.10
2017-05-16T02:22:42.814Z,3.86
2017-05-16T02:25:10.587Z,4.10
2017-05-16T02:27:38.289Z,3.40
2017-05-16T02:30:10.174Z,3.26
2017-05-16T02:32:37.398Z,3.52
2017-05-16T02:35:04.586Z,3.28
2017-05-16T02:37:33.693Z,3.28
2017-05-16T02:40:01.902Z,3.54
2017-05-16T02:42:29.154Z,3.70
2017-05-16T02:45:00.107Z,3.80
2017-05-16T02:47:27.290Z,3.50
2017-05-16T02:49:54.541Z,3.72
2017-05-16T02:52:21.750Z,3.56
2017-05-16T02:54:48.937Z,3.24
2017-05-16T02:57:16.133Z,4.18
2017-05-16T02:59:43.337Z,4.10
2017-05-16T03:02:10.521Z,4.30
2017-05-16T03:04:37.711Z,4.54
2017-05-16T03:07:04.962Z,5.24
2017-05-16T03:09:32.126Z,4.50
2017-05-16T03:11:59.317Z,4.08
2017-05-16T03:14:26.538Z,4.32
2017-05-16T03:16:53.722Z,3.96
2017-05-16T03:19:20.894Z,3.92
2017-05-16T03:21:48.111Z,3.36
2017-05-16T03:24:15.286Z,3.54
2017-05-16T03:26:42.466Z,3.90
2017-05-16T03:29:09.657Z,3.34
2017-05-16T03:31:36.831Z,3.08
2017-05-16T03:34:04.011Z,4.20
2017-05-16T03:36:31.235Z,3.60
2017-05-16T03:38:58.414Z,4.26
2017-05-16T03:41:25.599Z,4.24
2017-05-16T03:43:52.810Z,4.16
2017-05-16T03:46:19.995Z,4.32
2017-05-16T03:48:47.183Z,4.82
2017-05-16T03:51:14.391Z,4.46
2017-05-16T03:53:41.566Z,3.90
2017-05-16T03:56:08.758Z,4.18
2017-05-16T03:58:36.024Z,4.20
2017-05-16T04:01:03.164Z,3.34
2017-05-16T04:03:30.336Z,3.60
2017-05-16T04:05:57.539Z,4.04
2017-05-16T04:08:24.754Z,3.66
2017-05-16T04:10:51.937Z,4.30
2017-05-16T04:13:19.151Z,3.90
2017-05-16T04:15:46.332Z,5.08
2017-05-16T04:18:13.519Z,6.44
2017-05-16T04:20:40.754Z,5.80
2017-05-16T04:23:07.931Z,5.34
2017-05-16T04:25:35.134Z,4.74
2017-05-16T04:28:02.335Z,5.12
2017-05-16T04:30:29.522Z,4.72
2017-05-16T04:32:57.331Z,4.98
2017-05-16T04:35:24.627Z,4.80
2017-05-16T04:37:52.203Z,5.14
2017-05-16T04:40:19.391Z,4.74
2017-05-16T04:42:47.808Z,4.86
2017-05-16T04:45:15.106Z,5.00
2017-05-16T04:47:42.291Z,4.86
2017-05-16T04:50:09.494Z,5.50
2017-05-16T04:52:36.694Z,5.20
2017-05-16T04:55:03.866Z,5.16
2017-05-16T04:57:31.099Z,5.30
2017-05-16T04:59:58.262Z,4.72
2017-05-16T05:02:25.462Z,4.66
2017-05-16T05:04:52.670Z,4.78
2017-05-16T05:07:19.877Z,4.68
2017-05-16T05:09:47.062Z,4.54
2017-05-16T05:12:14.320Z,4.70
2017-05-16T05:14:41.533Z,5.66
2017-05-16T05:17:08.706Z,5.32
2017-05-16T05:19:35.940Z,6.10
2017-05-16T05:22:03.152Z,6.02
2017-05-16T05:24:32.257Z,5.46
2017-05-16T05:26:59.590Z,5.58
2017-05-16T05:29:26.770Z,5.72
2017-05-16T05:31:54.000Z,5.74
2017-05-16T05:34:21.252Z,5.50
2017-05-16T05:36:48.681Z,5.52
2017-05-16T05:39:15.866Z,6.28
2017-05-16T05:41:43.068Z,6.26
2017-05-16T05:44:10.260Z,7.42
2017-05-16T05:46:37.465Z,6.98
2017-05-16T05:49:04.686Z,6.92
2017-05-16T05:51:31.934Z,7.20
2017-05-16T05:53:59.231Z,6.48
2017-05-16T05:56:26.462Z,6.36
2017-05-16T05:58:53.648Z,6.16
2017-05-16T06:01:20.926Z,6.62
2017-05-16T06:03:48.168Z,6.72
2017-05-16T06:06:16.088Z,6.62
2017-05-16T06:08:50.357Z,6.70
2017-05-16T06:11:17.577Z,6.88
2017-05-16T06:13:44.775Z,7.72
2017-05-16T06:16:12.002Z,6.14
2017-05-16T06:18:39.195Z,7.08
2017-05-16T06:21:06.405Z,8.00
2017-05-16T06:23:33.969Z,9.24
2017-05-16T06:26:01.155Z,7.92
2017-05-16T06:28:28.375Z,7.50
2017-05-16T06:30:57.392Z,7.32
2017-05-16T06:33:24.617Z,7.00
2017-05-16T06:35:51.889Z,7.38
2017-05-16T06:38:19.103Z,5.50
2017-05-16T06:40:46.297Z,5.64
2017-05-16T06:43:13.481Z,5.22
2017-05-16T06:45:40.686Z,5.50
2017-05-16T06:48:07.872Z,5.98
2017-05-16T06:50:35.077Z,5.48
2017-05-16T06:53:05.288Z,5.20
2017-05-16T06:55:34.942Z,6.26
2017-05-16T06:58:02.173Z,6.58
2017-05-16T07:00:29.383Z,6.48
2017-05-16T07:02:56.582Z,6.90
2017-05-16T07:05:24.347Z,6.42
2017-05-16T07:07:51.585Z,6.70
2017-05-16T07:10:18.822Z,7.26
2017-05-16T07:12:46.016Z,7.50
2017-05-16T07:15:13.276Z,6.90
2017-05-16T07:17:40.542Z,7.26
2017-05-16T07:20:07.767Z,7.24
2017-05-16T07:22:35.002Z,7.08
2017-05-16T07:25:02.214Z,7.10
2017-05-16T07:27:29.898Z,6.10
2017-05-16T07:29:57.101Z,5.98
2017-05-16T07:32:25.347Z,5.60
2017-05-16T07:34:52.717Z,5.68
2017-05-16T07:37:19.941Z,5.52
2017-05-16T07:39:47.634Z,5.96
2017-05-16T07:42:14.859Z,5.98
2017-05-16T07:44:44.511Z,6.48
2017-05-16T07:47:11.752Z,5.92
2017-05-16T07:49:39.390Z,5.92
2017-05-16T07:52:07.651Z,6.02
2017-05-16T07:54:34.850Z,6.70
2017-05-16T07:57:02.072Z,6.02
2017-05-16T07:59:29.471Z,6.58
2017-05-16T08:01:56.664Z,6.86
2017-05-16T08:04:23.990Z,7.08
2017-05-16T08:06:51.205Z,6.12
2017-05-16T08:09:18.587Z,6.34
2017-05-16T08:11:46.872Z,7.36
2017-05-16T08:14:14.095Z,6.44
2017-05-16T08:16:41.343Z,6.22
2017-05-16T08:19:08.528Z,6.44
2017-05-16T08:21:35.738Z,6.84
2017-05-16T08:24:02.952Z,7.28
2017-05-16T08:26:30.159Z,7.18
2017-05-16T08:28:57.730Z,6.50
2017-05-16T08:31:25.018Z,7.10
2017-05-16T08:33:52.462Z,7.20
2017-05-16T08:36:22.843Z,6.74
2017-05-16T08:38:50.037Z,7.50
2017-05-16T08:41:17.219Z,7.76
2017-05-16T08:43:44.529Z,7.36
2017-05-16T08:46:11.746Z,8.14
2017-05-16T08:48:39.191Z,7.52
2017-05-16T08:51:06.420Z,7.66
2017-05-16T08:53:33.649Z,7.94
2017-05-16T08:56:00.999Z,8.04
2017-05-16T08:58:28.283Z,8.06
2017-05-16T09:00:56.388Z,9.12
2017-05-16T09:03:24.480Z,9.62
2017-05-16T09:05:51.731Z,11.16
2017-05-16T09:08:19.215Z,10.68
2017-05-16T09:10:46.512Z,11.80
2017-05-16T09:13:13.792Z,12.50
2017-05-16T09:15:41.705Z,12.32
2017-05-16T09:18:09.108Z,11.74
2017-05-16T09:20:36.539Z,14.06
2017-05-16T09:23:03.731Z,12.90
2017-05-16T09:25:31.665Z,11.42
2017-05-16T09:27:58.910Z,13.04
2017-05-16T09:30:26.912Z,11.66
2017-05-16T09:32:54.102Z,12.10
2017-05-16T09:35:21.431Z,12.28
2017-05-16T09:37:48.665Z,12.26
2017-05-16T09:40:15.872Z,11.72
2017-05-16T09:42:43.095Z,12.72
2017-05-16T09:45:10.760Z,13.90
2017-05-16T09:47:38.021Z,13.20
2017-05-16T09:50:05.895Z,11.60
2017-05-16T09:52:33.256Z,12.32
2017-05-16T09:55:00.557Z,12.88
2017-05-16T09:57:27.850Z,12.04
2017-05-16T09:59:55.075Z,12.86
2017-05-16T10:02:22.406Z,12.70
2017-05-16T10:04:49.731Z,12.80
2017-05-16T10:07:17.008Z,13.38
2017-05-16T10:09:44.288Z,12.94
2017-05-16T10:12:11.600Z,12.02
2017-05-16T10:14:38.814Z,12.68
2017-05-16T10:17:06.121Z,12.86
2017-05-16T10:19:33.385Z,12.54
2017-05-16T10:22:02.287Z,12.74
2017-05-16T10:24:29.484Z,11.98
2017-05-16T10:26:56.735Z,13.58
2017-05-16T10:29:24.616Z,13.26
2017-05-16T10:31:51.792Z,13.00
2017-05-16T10:34:19.083Z,13.16
2017-05-16T10:36:46.372Z,12.84
2017-05-16T10:39:13.582Z,13.78
2017-05-16T10:41:41.046Z,14.92
2017-05-16T10:44:08.938Z,13.10
2017-05-16T10:46:36.159Z,12.02
2017-05-16T10:49:03.478Z,11.02
2017-05-16T10:51:31.226Z,11.96
2017-05-16T10:53:58.538Z,12.42
2017-05-16T10:56:25.886Z,11.36
2017-05-16T10:58:53.688Z,11.66
2017-05-16T11:01:20.891Z,11.96
2017-05-16T11:03:48.162Z,12.30
2017-05-16T11:06:15.431Z,12.18
2017-05-16T11:08:42.788Z,11.38
2017-05-16T11:11:10.061Z,11.66
2017-05-16T11:13:37.528Z,11.98
2017-05-16T11:16:04.788Z,10.66
2017-05-16T11:18:32.054Z,10.20
2017-05-16T11:20:59.389Z,9.96
2017-05-16T11:23:26.579Z,10.70
2017-05-16T11:25:58.003Z,10.72
2017-05-16T11:28:27.866Z,10.80
2017-05-16T11:30:55.946Z,10.76
2017-05-16T11:33:23.235Z,9.42
2017-05-16T11:35:51.282Z,10.50
2017-05-16T11:38:18.514Z,12.14
2017-05-16T11:40:45.776Z,12.02
2017-05-16T11:43:13.038Z,10.82
2017-05-16T11:45:40.300Z,10.72
2017-05-16T11:48:07.517Z,11.08
2017-05-16T11:50:34.844Z,10.54
2017-05-16T11:53:02.187Z,10.72
2017-05-16T11:55:29.465Z,11.66
2017-05-16T11:57:56.722Z,10.04
2017-05-16T12:00:23.979Z,9.70
2017-05-16T12:02:51.489Z,10.18
2017-05-16T12:05:20.749Z,9.64
2017-05-16T12:07:48.012Z,8.84
2017-05-16T12:10:15.802Z,9.50
2017-05-16T12:12:43.105Z,8.98
2017-05-16T12:15:10.340Z,7.72
2017-05-16T12:17:37.624Z,9.12
2017-05-16T12:20:04.816Z,9.42
2017-05-16T12:22:32.039Z,9.02
2017-05-16T12:24:59.499Z,8.62
2017-05-16T12:27:29.622Z,9.10
2017-05-16T12:29:57.054Z,8.90
2017-05-16T12:32:24.267Z,8.88
2017-05-16T12:34:51.607Z,9.68
2017-05-16T12:37:18.972Z,10.48
2017-05-16T12:39:46.242Z,10.78
2017-05-16T12:42:13.667Z,10.32
2017-05-16T12:44:42.176Z,9.94
2017-05-16T12:47:09.890Z,9.80
2017-05-16T12:49:37.717Z,9.92
2017-05-16T12:52:04.942Z,10.38
2017-05-16T12:54:32.206Z,10.58
2017-05-16T12:56:59.602Z,10.52
2017-05-16T12:59:26.851Z,10.14
2017-05-16T13:01:54.201Z,10.10
2017-05-16T13:04:21.576Z,10.22
2017-05-16T13:06:48.775Z,10.10
2017-05-16T13:09:16.021Z,10.40
2017-05-16T13:11:43.726Z,10.44
2017-05-16T13:14:10.931Z,10.54
2017-05-16T13:16:38.216Z,10.50
2017-05-16T13:19:05.504Z,10.94
2017-05-16T13:21:32.780Z,10.58
2017-05-16T13:24:00.004Z,9.58
2017-05-16T13:26:27.208Z,11.26
2017-05-16T13:28:54.386Z,10.74
2017-05-16T13:31:21.653Z,11.26
2017-05-16T13:33:48.944Z,11.24
2017-05-16T13:36:16.176Z,10.16
2017-05-16T13:38:43.602Z,9.94
2017-05-16T13:41:10.880Z,11.74
2017-05-16T13:43:38.118Z,11.02
2017-05-16T13:46:05.510Z,9.86
2017-05-16T13:48:32.736Z,9.34
2017-05-16T13:50:59.921Z,10.62
2017-05-16T13:53:27.203Z,9.78
2017-05-16T13:55:54.402Z,10.06
2017-05-16T13:58:22.126Z,11.70
2017-05-16T14:00:49.439Z,10.58
2017-05-16T14:03:17.972Z,9.54
2017-05-16T14:05:45.290Z,10.98
2017-05-16T14:08:12.556Z,10.18
2017-05-16T14:10:39.862Z,10.30
2017-05-16T14:13:08.832Z,10.90
2017-05-16T14:15:36.118Z,9.00
2017-05-16T14:18:03.323Z,10.90
2017-05-16T14:20:30.584Z,12.66
2017-05-16T14:22:57.841Z,12.58
2017-05-16T14:25:25.034Z,11.58
2017-05-16T14:27:52.279Z,10.04
2017-05-16T14:30:19.759Z,10.00
2017-05-16T14:32:47.087Z,9.54
2017-05-16T14:35:14.462Z,9.90
2017-05-16T14:37:41.750Z,8.74
2017-05-16T14:40:08.980Z,9.42
2017-05-16T14:42:36.235Z,9.18
2017-05-16T14:45:03.875Z,9.48
2017-05-16T14:47:31.667Z,9.56
2017-05-16T14:49:58.994Z,10.04
2017-05-16T14:52:37.476Z,9.98
2017-05-16T14:55:05.623Z,9.72
2017-05-16T14:57:35.265Z,10.18
2017-05-16T15:00:02.925Z,9.70
2017-05-16T15:02:34.677Z,10.00
2017-05-16T15:05:03.137Z,10.00
2017-05-16T15:07:30.826Z,11.72
2017-05-16T15:09:58.101Z,11.28
2017-05-16T15:12:25.680Z,11.14
2017-05-16T15:20:02.591Z,9.40
2017-05-16T15:22:30.298Z,10.28
2017-05-16T15:24:57.845Z,9.70
2017-05-16T15:27:25.107Z,10.80
2017-05-16T15:29:52.329Z,9.84
2017-05-16T15:32:19.551Z,9.82
2017-05-16T15:34:46.809Z,10.36
2017-05-16T15:37:14.135Z,10.38
2017-05-16T15:39:42.327Z,9.86
2017-05-16T15:42:09.570Z,9.80
2017-05-16T15:44:36.812Z,9.46
2017-05-16T15:47:04.002Z,9.44
2017-05-16T15:49:32.167Z,8.80
2017-05-16T15:51:59.349Z,9.32
2017-05-16T15:54:26.692Z,8.54
2017-05-16T15:56:54.077Z,9.02
2017-05-16T15:59:21.416Z,9.66
2017-05-16T16:01:48.594Z,9.02
2017-05-16T16:04:16.228Z,9.70
2017-05-16T16:06:43.534Z,9.90
2017-05-16T16:09:10.801Z,7.68
2017-05-16T16:11:38.064Z,8.30
2017-05-16T16:14:05.285Z,8.16
2017-05-16T16:16:32.529Z,9.18
2017-05-16T16:18:59.782Z,8.54
2017-05-16T16:21:27.011Z,9.50
2017-05-16T16:23:54.217Z,9.76
2017-05-16T16:26:21.386Z,9.66
2017-05-16T16:28:48.591Z,9.28
2017-05-16T16:31:15.786Z,8.64
2017-05-16T16:33:43.025Z,9.60
2017-05-16T16:36:10.282Z,8.48
2017-05-16T16:38:37.479Z,9.68
2017-05-16T16:41:04.726Z,8.94
2017-05-16T16:43:32.438Z,9.58
2017-05-16T16:45:59.642Z,8.62
2017-05-16T16:48:28.916Z,9.54
2017-05-16T16:50:59.069Z,9.78
2017-05-16T16:53:26.267Z,10.46
2017-05-16T16:55:53.537Z,9.40
2017-05-16T16:58:21.752Z,9.40
2017-05-16T17:00:50.511Z,10.40
2017-05-16T17:03:17.738Z,9.10
2017-05-16T17:05:46.248Z,10.06
2017-05-16T17:08:19.229Z,9.98
2017-05-16T17:10:46.550Z,9.56
2017-05-16T17:13:16.511Z,10.62
2017-05-16T17:15:43.738Z,10.40
2017-05-16T17:18:10.957Z,9.12
2017-05-16T17:20:38.205Z,10.04
2017-05-16T17:23:05.914Z,10.70
2017-05-16T17:25:33.154Z,9.28
2017-05-16T17:28:01.235Z,11.60
2017-05-16T17:30:28.446Z,11.98
2017-05-16T17:32:55.687Z,11.24
2017-05-16T17:35:22.923Z,11.20
2017-05-16T17:37:50.166Z,10.10
2017-05-16T17:40:17.394Z,10.48
2017-05-16T17:42:44.582Z,11.44
2017-05-16T17:45:11.797Z,10.86
2017-05-16T17:47:39.110Z,11.66
2017-05-16T17:50:06.314Z,11.26
2017-05-16T17:52:33.576Z,10.78
2017-05-16T17:55:00.802Z,10.62
2017-05-16T17:57:28.004Z,10.04
2017-05-16T17:59:55.190Z,10.48
2017-05-16T18:02:22.435Z,10.36
2017-05-16T18:04:49.655Z,10.38
2017-05-16T18:07:16.834Z,10.98
2017-05-16T18:09:44.114Z,11.02
2017-05-16T18:12:11.402Z,10.82
2017-05-16T18:14:38.584Z,11.74
2017-05-16T18:17:05.826Z,11.46
2017-05-16T18:19:33.005Z,10.72
2017-05-16T18:22:00.223Z,11.22
2017-05-16T18:24:27.451Z,11.60
2017-05-16T18:26:54.680Z,12.60
2017-05-16T18:29:21.863Z,12.34
2017-05-16T18:31:49.095Z,10.90
2017-05-16T18:34:16.445Z,11.72
2017-05-16T18:36:43.627Z,10.36
2017-05-16T18:39:10.853Z,12.40
2017-05-16T18:41:38.412Z,13.76
2017-05-16T18:44:05.611Z,17.82
2017-05-16T18:46:32.850Z,16.48
2017-05-16T18:49:00.047Z,16.74
2017-05-16T18:51:27.254Z,14.86
2017-05-16T18:53:54.471Z,15.02
2017-05-16T18:56:22.354Z,13.60
2017-05-16T18:58:57.290Z,13.54
2017-05-16T19:01:24.527Z,12.10
2017-05-16T19:03:51.757Z,12.00
2017-05-16T19:06:19.016Z,10.94
2017-05-16T19:08:46.286Z,11.12
2017-05-16T19:11:13.499Z,11.32
2017-05-16T19:13:40.684Z,11.68
2017-05-16T19:16:10.616Z,11.02
2017-05-16T19:18:40.863Z,11.82
2017-05-16T19:21:08.114Z,11.60
2017-05-16T19:23:35.409Z,12.00
2017-05-16T19:26:05.390Z,11.52
2017-05-16T19:28:33.870Z,12.02
2017-05-16T19:31:01.101Z,11.84
2017-05-16T19:33:28.339Z,12.90
2017-05-16T19:35:55.644Z,13.10
2017-05-16T19:38:22.822Z,12.56
2017-05-16T19:40:50.053Z,11.44
2017-05-16T19:43:17.242Z,11.86
2017-05-16T19:45:44.431Z,11.68
2017-05-16T19:48:13.066Z,11.78
2017-05-16T19:50:41.734Z,11.82
2017-05-16T19:53:08.982Z,12.08
2017-05-16T19:55:38.919Z,12.22
2017-05-16T19:58:09.512Z,12.52
2017-05-16T20:00:36.724Z,12.16
2017-05-16T20:05:46.822Z,12.76
2017-05-16T20:08:14.100Z,12.96
2017-05-16T20:10:41.347Z,13.12
2017-05-16T20:13:08.551Z,14.82
2017-05-16T20:15:35.789Z,14.88
2017-05-16T20:18:02.980Z,13.38
2017-05-16T20:20:30.176Z,15.36
2017-05-16T20:22:57.402Z,14.18
2017-05-16T20:25:24.637Z,14.68
2017-05-16T20:27:55.603Z,15.44
2017-05-16T20:30:22.843Z,15.52
2017-05-16T20:32:50.051Z,18.16
2017-05-16T20:35:17.258Z,15.14
2017-05-16T20:37:44.582Z,14.48
2017-05-16T20:40:12.573Z,15.28
2017-05-16T20:42:39.759Z,16.16
2017-05-16T20:45:07.110Z,14.20
2017-05-16T20:47:35.586Z,15.34
2017-05-16T20:50:02.811Z,15.98
2017-05-16T20:52:30.093Z,15.06
2017-05-16T20:54:57.402Z,16.28
2017-05-16T20:57:25.976Z,15.18
2017-05-16T20:59:59.073Z,15.92
2017-05-16T21:05:09.514Z,15.78
2017-05-16T21:10:29.499Z,15.44
2017-05-16T21:15:35.867Z,15.36
2017-05-16T21:18:03.107Z,15.52
2017-05-16T21:20:30.348Z,15.36
2017-05-16T21:22:57.687Z,15.90
2017-05-16T21:25:25.807Z,15.58
2017-05-16T21:27:55.716Z,16.34
2017-05-16T21:30:24.271Z,15.64
2017-05-16T21:32:51.523Z,15.88
2017-05-16T21:35:18.792Z,16.20
2017-05-16T21:37:46.708Z,16.88
2017-05-16T21:40:15.379Z,18.08
2017-05-16T21:42:42.581Z,18.90
2017-05-16T21:45:09.932Z,16.52
2017-05-16T21:47:37.154Z,16.30
2017-05-16T21:50:04.386Z,16.66
2017-05-16T21:52:35.243Z,17.04
2017-05-16T21:55:02.799Z,17.08
2017-05-16T21:57:31.099Z,16.32
2017-05-16T21:59:59.239Z,17.42
2017-05-16T22:02:28.290Z,16.84
2017-05-16T22:04:57.139Z,15.90
2017-05-16T22:07:24.340Z,16.54
2017-05-16T22:09:51.621Z,17.60
2017-05-16T22:12:29.409Z,16.78
2017-05-16T22:14:56.618Z,16.08
2017-05-16T22:17:24.898Z,17.42
2017-05-16T22:19:52.925Z,16.20
2017-05-16T22:22:20.177Z,16.42
2017-05-16T22:24:51.221Z,15.50
2017-05-16T22:27:18.404Z,16.42
2017-05-16T22:29:45.603Z,15.52
2017-05-16T22:32:16.830Z,15.86
2017-05-16T22:34:44.079Z,19.04
2017-05-16T22:37:25.836Z,18.40
2017-05-16T22:39:53.092Z,15.30
2017-05-16T22:42:20.338Z,16.04
2017-05-16T22:44:47.596Z,15.12
2017-05-16T22:47:16.855Z,14.82
2017-05-16T22:49:44.096Z,15.60
2017-05-16T22:52:13.110Z,15.94
2017-05-16T22:54:41.330Z,15.30
2017-05-16T22:57:08.523Z,16.04
2017-05-16T22:59:35.751Z,13.64
2017-05-16T23:02:02.959Z,15.78
2017-05-16T23:04:31.151Z,15.36
2017-05-16T23:06:58.351Z,14.02
2017-05-16T23:09:26.202Z,14.44
2017-05-16T23:11:53.442Z,15.54
2017-05-16T23:14:22.156Z,13.70
2017-05-16T23:16:49.352Z,14.44
2017-05-16T23:19:16.834Z,13.92
2017-05-16T23:21:44.116Z,15.28
2017-05-16T23:24:11.372Z,14.90
2017-05-16T23:26:39.478Z,14.36
2017-05-16T23:29:16.703Z,14.14
2017-05-16T23:31:43.921Z,13.94
2017-05-16T23:34:11.132Z,14.84
2017-05-16T23:39:30.899Z,14.18
2017-05-16T23:41:58.175Z,13.34
2017-05-16T23:44:25.371Z,14.94
2017-05-16T23:46:52.585Z,15.50
2017-05-16T23:49:19.832Z,15.94
2017-05-16T23:51:48.248Z,15.84
2017-05-16T23:54:15.495Z,14.32
2017-05-16T23:56:42.768Z,14.12
2017-05-16T23:59:11.932Z,13.84
